sensor_id;sensor_type;location;lat;lon;timestamp;pressure;altitude;pressure_sealevel;temperature;humidity
10476;BME280;26166;48.264;11.436;2023-04-08T00:01:22;96277.31;;;10.86;51.63
10476;BME280;26166;48.264;11.436;2023-04-08T00:04:23;96278.31;;;10.85;51.30
10476;BME280;26166;48.264;11.436;2023-04-08T00:07:23;96277.31;;;10.86;51.34
10476;BME280;26166;48.264;11.436;2023-04-08T00:10:23;96273.19;;;10.84;51.55
10476;BME280;26166;48.264;11.436;2023-04-08T00:13:25;96278.63;;;10.82;51.47
10476;BME280;26166;48.264;11.436;2023-04-08T00:16:25;96278.81;;;10.81;51.92
10476;BME280;26166;48.264;11.436;2023-04-08T00:19:25;96280.63;;;10.80;51.80
10476;BME280;26166;48.264;11.436;2023-04-08T00:22:25;96281.56;;;10.79;51.82
10476;BME280;26166;48.264;11.436;2023-04-08T00:25:26;96280.75;;;10.79;51.60
10476;BME280;26166;48.264;11.436;2023-04-08T00:28:26;96292.09;;;10.79;51.50
10476;BME280;26166;48.264;11.436;2023-04-08T00:31:26;96277.31;;;10.78;51.60
10476;BME280;26166;48.264;11.436;2023-04-08T00:34:26;96280.94;;;10.77;51.86
10476;BME280;26166;48.264;11.436;2023-04-08T00:37:26;96283.56;;;10.77;51.73
10476;BME280;26166;48.264;11.436;2023-04-08T00:40:27;96285.69;;;10.74;51.98
10476;BME280;26166;48.264;11.436;2023-04-08T00:43:27;96290.13;;;10.73;51.85
10476;BME280;26166;48.264;11.436;2023-04-08T00:46:27;96286.84;;;10.71;52.17
10476;BME280;26166;48.264;11.436;2023-04-08T00:49:27;96286.84;;;10.71;52.19
10476;BME280;26166;48.264;11.436;2023-04-08T00:52:27;96291.28;;;10.71;52.28
10476;BME280;26166;48.264;11.436;2023-04-08T00:55:28;96288.84;;;10.69;52.39
10476;BME280;26166;48.264;11.436;2023-04-08T00:58:28;96288.19;;;10.67;52.57
10476;BME280;26166;48.264;11.436;2023-04-08T01:04:37;96285.41;;;10.60;52.40
10476;BME280;26166;48.264;11.436;2023-04-08T01:07:48;96281.13;;;10.59;52.72
10476;BME280;26166;48.264;11.436;2023-04-08T01:10:50;96282.94;;;10.59;52.84
10476;BME280;26166;48.264;11.436;2023-04-08T01:13:51;96287.19;;;10.60;52.69
10476;BME280;26166;48.264;11.436;2023-04-08T01:16:54;96283.75;;;10.59;52.82
10476;BME280;26166;48.264;11.436;2023-04-08T01:19:56;96283.75;;;10.59;52.79
10476;BME280;26166;48.264;11.436;2023-04-08T01:26:04;96291.78;;;10.58;52.54
10476;BME280;26166;48.264;11.436;2023-04-08T01:29:04;96287.53;;;10.57;52.64
10476;BME280;26166;48.264;11.436;2023-04-08T01:32:04;96284.25;;;10.55;52.61
10476;BME280;26166;48.264;11.436;2023-04-08T01:35:07;96292.13;;;10.55;52.52
10476;BME280;26166;48.264;11.436;2023-04-08T01:38:09;96281.44;;;10.56;52.58
10476;BME280;26166;48.264;11.436;2023-04-08T01:41:10;96285.25;;;10.54;52.55
10476;BME280;26166;48.264;11.436;2023-04-08T01:44:10;96276.38;;;10.55;52.74
10476;BME280;26166;48.264;11.436;2023-04-08T01:47:12;96283.25;;;10.56;52.51
10476;BME280;26166;48.264;11.436;2023-04-08T01:50:13;96292.78;;;10.57;52.79
10476;BME280;26166;48.264;11.436;2023-04-08T01:53:14;96283.91;;;10.58;52.77
10476;BME280;26166;48.264;11.436;2023-04-08T01:56:14;96279.66;;;10.57;52.50
10476;BME280;26166;48.264;11.436;2023-04-08T01:59:14;96284.91;;;10.57;52.77
10476;BME280;26166;48.264;11.436;2023-04-08T02:02:16;96280.63;;;10.56;52.75
10476;BME280;26166;48.264;11.436;2023-04-08T02:05:17;96285.91;;;10.56;52.47
10476;BME280;26166;48.264;11.436;2023-04-08T02:08:17;96292.13;;;10.55;52.80
10476;BME280;26166;48.264;11.436;2023-04-08T02:11:17;96288.84;;;10.53;52.57
10476;BME280;26166;48.264;11.436;2023-04-08T02:14:18;96292.47;;;10.52;52.66
10476;BME280;26166;48.264;11.436;2023-04-08T02:17:26;96282.94;;;10.51;52.60
10476;BME280;26166;48.264;11.436;2023-04-08T02:20:33;96285.56;;;10.51;52.67
10476;BME280;26166;48.264;11.436;2023-04-08T02:23:37;96287.38;;;10.50;52.75
10476;BME280;26166;48.264;11.436;2023-04-08T02:26:38;96285.56;;;10.51;52.84
10476;BME280;26166;48.264;11.436;2023-04-08T02:29:39;96292.47;;;10.52;52.98
10476;BME280;26166;48.264;11.436;2023-04-08T02:32:39;96289.84;;;10.52;52.97
10476;BME280;26166;48.264;11.436;2023-04-08T02:35:40;96287.38;;;10.50;52.97
10476;BME280;26166;48.264;11.436;2023-04-08T02:38:41;96289.19;;;10.50;52.77
10476;BME280;26166;48.264;11.436;2023-04-08T02:41:41;96291.81;;;10.50;52.87
10476;BME280;26166;48.264;11.436;2023-04-08T02:44:42;96287.53;;;10.49;52.71
10476;BME280;26166;48.264;11.436;2023-04-08T02:47:42;96287.53;;;10.49;52.69
10476;BME280;26166;48.264;11.436;2023-04-08T02:50:42;96293.63;;;10.49;52.97
10476;BME280;26166;48.264;11.436;2023-04-08T02:53:42;96289.00;;;10.51;52.60
10476;BME280;26166;48.264;11.436;2023-04-08T02:56:42;96292.47;;;10.52;52.68
10476;BME280;26166;48.264;11.436;2023-04-08T02:59:43;96289.00;;;10.51;52.67
10476;BME280;26166;48.264;11.436;2023-04-08T03:02:43;96289.00;;;10.51;53.02
10476;BME280;26166;48.264;11.436;2023-04-08T03:05:43;96291.81;;;10.50;52.64
10476;BME280;26166;48.264;11.436;2023-04-08T03:08:43;96290.81;;;10.51;52.79
10476;BME280;26166;48.264;11.436;2023-04-08T03:11:43;96298.53;;;10.52;52.62
10476;BME280;26166;48.264;11.436;2023-04-08T03:14:44;96290.66;;;10.52;52.59
10476;BME280;26166;48.264;11.436;2023-04-08T03:17:44;96301.97;;;10.53;52.52
10476;BME280;26166;48.264;11.436;2023-04-08T03:20:44;96295.75;;;10.54;52.79
10476;BME280;26166;48.264;11.436;2023-04-08T03:23:44;96296.56;;;10.54;53.01
10476;BME280;26166;48.264;11.436;2023-04-08T03:26:45;96297.38;;;10.55;53.06
10476;BME280;26166;48.264;11.436;2023-04-08T03:29:45;96297.38;;;10.55;52.97
10476;BME280;26166;48.264;11.436;2023-04-08T03:32:45;96297.38;;;10.55;52.81
10476;BME280;26166;48.264;11.436;2023-04-08T03:35:45;96303.47;;;10.55;52.79
10476;BME280;26166;48.264;11.436;2023-04-08T03:38:46;96306.72;;;10.57;52.83
10476;BME280;26166;48.264;11.436;2023-04-08T03:41:46;96300.66;;;10.57;52.99
10476;BME280;26166;48.264;11.436;2023-04-08T03:44:46;96304.28;;;10.56;53.35
10476;BME280;26166;48.264;11.436;2023-04-08T03:47:46;96300.00;;;10.55;53.50
10476;BME280;26166;48.264;11.436;2023-04-08T03:50:46;96303.63;;;10.54;53.03
10476;BME280;26166;48.264;11.436;2023-04-08T03:53:46;96304.59;;;10.53;53.51
10476;BME280;26166;48.264;11.436;2023-04-08T03:56:48;96313.47;;;10.52;53.60
10476;BME280;26166;48.264;11.436;2023-04-08T03:59:49;96309.22;;;10.51;53.48
10476;BME280;26166;48.264;11.436;2023-04-08T04:02:49;96311.84;;;10.51;53.79
10476;BME280;26166;48.264;11.436;2023-04-08T04:05:49;96317.09;;;10.51;53.59
10476;BME280;26166;48.264;11.436;2023-04-08T04:08:51;96321.34;;;10.52;53.73
10476;BME280;26166;48.264;11.436;2023-04-08T04:11:52;96329.06;;;10.53;53.85
10476;BME280;26166;48.264;11.436;2023-04-08T04:14:52;96322.03;;;10.54;53.54
10476;BME280;26166;48.264;11.436;2023-04-08T04:17:52;96325.47;;;10.54;53.55
10476;BME280;26166;48.264;11.436;2023-04-08T04:20:52;96328.91;;;10.55;53.46
10476;BME280;26166;48.264;11.436;2023-04-08T04:23:52;96329.56;;;10.57;53.76
10476;BME280;26166;48.264;11.436;2023-04-08T04:26:53;96340.06;;;10.57;53.68
10476;BME280;26166;48.264;11.436;2023-04-08T04:29:53;96345.16;;;10.58;53.38
10476;BME280;26166;48.264;11.436;2023-04-08T04:32:53;96343.34;;;10.59;53.35
10476;BME280;26166;48.264;11.436;2023-04-08T04:35:53;96351.06;;;10.60;53.34
10476;BME280;26166;48.264;11.436;2023-04-08T04:38:53;96350.06;;;10.61;53.17
10476;BME280;26166;48.264;11.436;2023-04-08T04:41:54;96356.13;;;10.62;53.19
10476;BME280;26166;48.264;11.436;2023-04-08T04:44:54;96349.25;;;10.61;53.27
10476;BME280;26166;48.264;11.436;2023-04-08T04:47:54;96350.88;;;10.62;53.65
10476;BME280;26166;48.264;11.436;2023-04-08T04:50:55;96352.56;;;10.63;53.34
10476;BME280;26166;48.264;11.436;2023-04-08T04:53:55;96356.81;;;10.64;53.33
10476;BME280;26166;48.264;11.436;2023-04-08T04:56:55;96348.94;;;10.64;53.62
10476;BME280;26166;48.264;11.436;2023-04-08T04:59:56;96351.56;;;10.64;53.26
10476;BME280;26166;48.264;11.436;2023-04-08T05:02:56;96352.19;;;10.66;53.28
10476;BME280;26166;48.264;11.436;2023-04-08T05:05:56;96353.19;;;10.65;53.88
10476;BME280;26166;48.264;11.436;2023-04-08T05:08:56;96357.81;;;10.63;54.01
10476;BME280;26166;48.264;11.436;2023-04-08T05:11:56;96356.13;;;10.62;54.00
10476;BME280;26166;48.264;11.436;2023-04-08T05:14:57;96360.56;;;10.61;53.76
10476;BME280;26166;48.264;11.436;2023-04-08T05:17:57;96356.13;;;10.62;53.75
10476;BME280;26166;48.264;11.436;2023-04-08T05:20:57;96357.00;;;10.63;54.17
10476;BME280;26166;48.264;11.436;2023-04-08T05:23:57;96357.13;;;10.61;54.05
10476;BME280;26166;48.264;11.436;2023-04-08T05:26:57;96358.94;;;10.60;54.24
10476;BME280;26166;48.264;11.436;2023-04-08T05:29:58;96362.25;;;10.63;54.31
10476;BME280;26166;48.264;11.436;2023-04-08T05:32:58;96366.66;;;10.62;54.28
10476;BME280;26166;48.264;11.436;2023-04-08T05:35:58;96359.75;;;10.61;54.33
10476;BME280;26166;48.264;11.436;2023-04-08T05:38:58;96365.00;;;10.61;54.59
10476;BME280;26166;48.264;11.436;2023-04-08T05:41:58;96361.41;;;10.62;54.88
10476;BME280;26166;48.264;11.436;2023-04-08T05:44:58;96361.75;;;10.59;54.58
10476;BME280;26166;48.264;11.436;2023-04-08T05:47:59;96368.63;;;10.60;54.47
10476;BME280;26166;48.264;11.436;2023-04-08T05:50:59;96365.84;;;10.61;54.59
10476;BME280;26166;48.264;11.436;2023-04-08T05:53:59;96376.03;;;10.65;54.83
10476;BME280;26166;48.264;11.436;2023-04-08T05:57:00;96379.47;;;10.65;54.90
10476;BME280;26166;48.264;11.436;2023-04-08T06:00:07;96380.13;;;10.67;54.97
10476;BME280;26166;48.264;11.436;2023-04-08T06:03:07;96381.78;;;10.68;54.79
10476;BME280;26166;48.264;11.436;2023-04-08T06:06:10;96389.47;;;10.70;54.94
10476;BME280;26166;48.264;11.436;2023-04-08T06:09:11;96388.66;;;10.69;54.99
10476;BME280;26166;48.264;11.436;2023-04-08T06:12:11;96385.03;;;10.70;55.09
10476;BME280;26166;48.264;11.436;2023-04-08T06:15:11;96399.66;;;10.73;55.03
10476;BME280;26166;48.264;11.436;2023-04-08T06:18:11;96391.78;;;10.73;55.19
10476;BME280;26166;48.264;11.436;2023-04-08T06:21:11;96395.22;;;10.73;55.47
10476;BME280;26166;48.264;11.436;2023-04-08T06:24:11;96395.22;;;10.73;55.49
10476;BME280;26166;48.264;11.436;2023-04-08T06:27:12;96401.31;;;10.74;55.64
10476;BME280;26166;48.264;11.436;2023-04-08T06:30:12;96403.75;;;10.75;55.82
10476;BME280;26166;48.264;11.436;2023-04-08T06:33:12;96408.19;;;10.75;55.76
10476;BME280;26166;48.264;11.436;2023-04-08T06:36:12;96407.38;;;10.74;55.51
10476;BME280;26166;48.264;11.436;2023-04-08T06:39:12;96404.59;;;10.76;55.90
10476;BME280;26166;48.264;11.436;2023-04-08T06:42:14;96406.38;;;10.75;55.61
10476;BME280;26166;48.264;11.436;2023-04-08T06:45:14;96414.28;;;10.75;55.90
10476;BME280;26166;48.264;11.436;2023-04-08T06:48:15;96414.28;;;10.75;55.78
10476;BME280;26166;48.264;11.436;2023-04-08T06:51:15;96415.25;;;10.74;56.10
10476;BME280;26166;48.264;11.436;2023-04-08T06:54:15;96417.06;;;10.74;55.70
10476;BME280;26166;48.264;11.436;2023-04-08T06:57:16;96418.69;;;10.75;55.74
10476;BME280;26166;48.264;11.436;2023-04-08T07:00:16;96426.75;;;10.73;56.15
10476;BME280;26166;48.264;11.436;2023-04-08T07:03:16;96425.13;;;10.72;56.66
10476;BME280;26166;48.264;11.436;2023-04-08T07:06:16;96427.75;;;10.72;56.19
10476;BME280;26166;48.264;11.436;2023-04-08T07:09:16;96427.06;;;10.70;56.65
10476;BME280;26166;48.264;11.436;2023-04-08T07:12:17;96437.94;;;10.67;56.40
10476;BME280;26166;48.264;11.436;2023-04-08T07:15:17;96437.44;;;10.64;56.44
10476;BME280;26166;48.264;11.436;2023-04-08T07:18:17;96430.53;;;10.63;56.70
10476;BME280;26166;48.264;11.436;2023-04-08T07:21:17;96439.56;;;10.60;56.55
10476;BME280;26166;48.264;11.436;2023-04-08T07:24:17;96435.59;;;10.56;56.63
10476;BME280;26166;48.264;11.436;2023-04-08T07:27:18;96436.91;;;10.52;56.51
10476;BME280;26166;48.264;11.436;2023-04-08T07:30:18;96441.53;;;10.50;56.58
10476;BME280;26166;48.264;11.436;2023-04-08T07:33:18;96437.22;;;10.49;56.60
10476;BME280;26166;48.264;11.436;2023-04-08T07:36:18;96445.09;;;10.49;56.66
10476;BME280;26166;48.264;11.436;2023-04-08T07:39:20;96438.53;;;10.53;56.35
10476;BME280;26166;48.264;11.436;2023-04-08T07:42:20;96451.53;;;10.54;56.19
10476;BME280;26166;48.264;11.436;2023-04-08T07:45:20;96442.97;;;10.52;55.96
10476;BME280;26166;48.264;11.436;2023-04-08T07:48:21;96443.97;;;10.51;56.18
10476;BME280;26166;48.264;11.436;2023-04-08T07:51:21;96451.69;;;10.53;55.54
10476;BME280;26166;48.264;11.436;2023-04-08T07:54:22;96442.16;;;10.52;55.59
10476;BME280;26166;48.264;11.436;2023-04-08T07:57:22;96451.03;;;10.51;55.44
10476;BME280;26166;48.264;11.436;2023-04-08T08:00:22;96445.09;;;10.49;55.28
10476;BME280;26166;48.264;11.436;2023-04-08T08:03:22;96452.03;;;10.50;55.48
10476;BME280;26166;48.264;11.436;2023-04-08T08:06:23;96459.22;;;10.48;55.50
10476;BME280;26166;48.264;11.436;2023-04-08T08:09:23;96467.63;;;10.51;54.95
10476;BME280;26166;48.264;11.436;2023-04-08T08:12:23;96464.81;;;10.53;54.44
10476;BME280;26166;48.264;11.436;2023-04-08T08:15:23;96470.75;;;10.55;54.25
10476;BME280;26166;48.264;11.436;2023-04-08T08:18:23;96475.66;;;10.50;54.01
10476;BME280;26166;48.264;11.436;2023-04-08T08:21:23;96479.09;;;10.50;54.72
10476;BME280;26166;48.264;11.436;2023-04-08T08:24:25;96475.66;;;10.50;54.27
10476;BME280;26166;48.264;11.436;2023-04-08T08:27:25;96482.72;;;10.49;54.36
10476;BME280;26166;48.264;11.436;2023-04-08T08:30:25;96484.19;;;10.52;54.56
10476;BME280;26166;48.264;11.436;2023-04-08T08:33:26;96493.72;;;10.53;54.43
10476;BME280;26166;48.264;11.436;2023-04-08T08:36:26;96486.50;;;10.55;53.88
10476;BME280;26166;48.264;11.436;2023-04-08T08:39:26;96477.63;;;10.56;53.61
10476;BME280;26166;48.264;11.436;2023-04-08T08:42:26;96484.88;;;10.54;52.79
10476;BME280;26166;48.264;11.436;2023-04-08T08:45:26;96481.72;;;10.50;52.72
10476;BME280;26166;48.264;11.436;2023-04-08T08:48:27;96486.31;;;10.48;53.21
10476;BME280;26166;48.264;11.436;2023-04-08T08:51:27;96484.84;;;10.46;53.38
10476;BME280;26166;48.264;11.436;2023-04-08T08:54:27;96492.72;;;10.46;53.50
10476;BME280;26166;48.264;11.436;2023-04-08T08:57:27;96491.56;;;10.48;53.60
10476;BME280;26166;48.264;11.436;2023-04-08T09:00:34;96490.75;;;10.48;53.79
10476;BME280;26166;48.264;11.436;2023-04-08T09:03:35;96495.19;;;10.47;53.96
10476;BME280;26166;48.264;11.436;2023-04-08T09:06:36;96492.38;;;10.49;53.99
10476;BME280;26166;48.264;11.436;2023-04-08T09:09:55;96492.38;;;10.49;53.87
10476;BME280;26166;48.264;11.436;2023-04-08T09:12:55;96496.34;;;10.45;54.34
10476;BME280;26166;48.264;11.436;2023-04-08T09:19:07;96504.88;;;10.47;54.39
10476;BME280;26166;48.264;11.436;2023-04-08T09:22:08;96502.88;;;10.49;54.34
10476;BME280;26166;48.264;11.436;2023-04-08T09:25:22;96502.56;;;10.52;54.96
10476;BME280;26166;48.264;11.436;2023-04-08T09:28:22;96503.09;;;10.55;54.81
10476;BME280;26166;48.264;11.436;2023-04-08T09:31:23;96501.91;;;10.58;55.06
10476;BME280;26166;48.264;11.436;2023-04-08T09:34:24;96496.34;;;10.61;55.37
10476;BME280;26166;48.264;11.436;2023-04-08T09:37:26;96502.44;;;10.61;55.04
10476;BME280;26166;48.264;11.436;2023-04-08T09:40:26;96504.09;;;10.63;55.09
10476;BME280;26166;48.264;11.436;2023-04-08T09:43:26;96502.44;;;10.61;55.23
10476;BME280;26166;48.264;11.436;2023-04-08T09:49:48;96505.72;;;10.64;55.23
10476;BME280;26166;48.264;11.436;2023-04-08T09:52:51;96497.19;;;10.61;54.79
10476;BME280;26166;48.264;11.436;2023-04-08T09:55:54;96485.19;;;10.59;54.79
10476;BME280;26166;48.264;11.436;2023-04-08T09:59:02;96493.09;;;10.59;54.44
10476;BME280;26166;48.264;11.436;2023-04-08T10:02:08;96496.34;;;10.61;54.80
10476;BME280;26166;48.264;11.436;2023-04-08T10:05:11;96493.72;;;10.61;54.87
10476;BME280;26166;48.264;11.436;2023-04-08T10:08:12;96498.16;;;10.60;54.82
10476;BME280;26166;48.264;11.436;2023-04-08T10:11:15;96493.59;;;10.63;54.85
10476;BME280;26166;48.264;11.436;2023-04-08T10:14:16;96495.22;;;10.64;54.96
10476;BME280;26166;48.264;11.436;2023-04-08T10:17:34;96497.03;;;10.63;54.78
10476;BME280;26166;48.264;11.436;2023-04-08T10:27:05;96493.09;;;10.59;54.28
10476;BME280;26166;48.264;11.436;2023-04-08T10:36:28;96506.34;;;10.57;54.30
10476;BME280;26166;48.264;11.436;2023-04-08T10:39:29;96504.22;;;10.61;54.57
10476;BME280;26166;48.264;11.436;2023-04-08T10:42:29;96503.25;;;10.62;54.39
10476;BME280;26166;48.264;11.436;2023-04-08T10:45:29;96499.66;;;10.63;54.08
10476;BME280;26166;48.264;11.436;2023-04-08T10:48:30;96497.69;;;10.65;54.16
10476;BME280;26166;48.264;11.436;2023-04-08T10:51:30;96501.81;;;10.68;54.19
10476;BME280;26166;48.264;11.436;2023-04-08T10:54:31;96507.06;;;10.68;54.34
10476;BME280;26166;48.264;11.436;2023-04-08T10:57:31;96507.88;;;10.68;54.37
10476;BME280;26166;48.264;11.436;2023-04-08T11:00:33;96505.25;;;10.68;54.59
10476;BME280;26166;48.264;11.436;2023-04-08T11:03:34;96503.28;;;10.70;54.63
10476;BME280;26166;48.264;11.436;2023-04-08T11:06:35;96504.91;;;10.71;54.34
10476;BME280;26166;48.264;11.436;2023-04-08T11:09:36;96505.25;;;10.68;54.36
10476;BME280;26166;48.264;11.436;2023-04-08T11:12:37;96511.31;;;10.69;54.52
10476;BME280;26166;48.264;11.436;2023-04-08T11:15:37;96499.00;;;10.69;55.04
10476;BME280;26166;48.264;11.436;2023-04-08T11:18:38;96514.78;;;10.69;54.59
10476;BME280;26166;48.264;11.436;2023-04-08T11:21:38;96509.50;;;10.69;54.96
10476;BME280;26166;48.264;11.436;2023-04-08T11:24:38;96514.94;;;10.68;55.00
10476;BME280;26166;48.264;11.436;2023-04-08T11:27:39;96510.50;;;10.68;54.76
10476;BME280;26166;48.264;11.436;2023-04-08T11:30:39;96517.56;;;10.68;54.59
10476;BME280;26166;48.264;11.436;2023-04-08T11:33:43;96522.16;;;10.66;54.87
10476;BME280;26166;48.264;11.436;2023-04-08T11:36:43;96523.78;;;10.67;54.91
10476;BME280;26166;48.264;11.436;2023-04-08T11:39:44;96519.38;;;10.67;54.78
10476;BME280;26166;48.264;11.436;2023-04-08T11:42:44;96519.50;;;10.66;54.52
10476;BME280;26166;48.264;11.436;2023-04-08T11:45:45;96533.47;;;10.66;54.77
10476;BME280;26166;48.264;11.436;2023-04-08T11:48:58;96523.31;;;10.63;54.54
10476;BME280;26166;48.264;11.436;2023-04-08T11:51:59;96526.75;;;10.64;54.46
10476;BME280;26166;48.264;11.436;2023-04-08T11:54:59;96518.88;;;10.64;54.67
10476;BME280;26166;48.264;11.436;2023-04-08T11:58:02;96522.31;;;10.64;54.42
10476;BME280;26166;48.264;11.436;2023-04-08T12:01:03;96523.31;;;10.63;54.61
10476;BME280;26166;48.264;11.436;2023-04-08T12:04:03;96524.13;;;10.64;54.45
10476;BME280;26166;48.264;11.436;2023-04-08T12:07:05;96532.00;;;10.64;54.41
10476;BME280;26166;48.264;11.436;2023-04-08T12:10:05;96530.19;;;10.64;54.04
10476;BME280;26166;48.264;11.436;2023-04-08T12:13:06;96541.69;;;10.63;54.02
10476;BME280;26166;48.264;11.436;2023-04-08T12:16:07;96537.41;;;10.62;53.94
10476;BME280;26166;48.264;11.436;2023-04-08T12:19:07;96541.00;;;10.61;54.30
10476;BME280;26166;48.264;11.436;2023-04-08T12:22:07;96537.56;;;10.60;54.45
10476;BME280;26166;48.264;11.436;2023-04-08T12:25:08;96538.56;;;10.59;54.23
10476;BME280;26166;48.264;11.436;2023-04-08T12:28:08;96535.94;;;10.59;54.13
10476;BME280;26166;48.264;11.436;2023-04-08T12:31:10;96537.75;;;10.59;54.05
10476;BME280;26166;48.264;11.436;2023-04-08T12:34:10;96537.06;;;10.57;54.22
10476;BME280;26166;48.264;11.436;2023-04-08T12:37:11;96536.72;;;10.52;54.46
10476;BME280;26166;48.264;11.436;2023-04-08T12:40:11;96541.97;;;10.52;54.70
10476;BME280;26166;48.264;11.436;2023-04-08T12:43:12;96543.59;;;10.53;54.57
10476;BME280;26166;48.264;11.436;2023-04-08T12:46:12;96549.53;;;10.55;54.20
10476;BME280;26166;48.264;11.436;2023-04-08T12:49:12;96550.19;;;10.57;54.25
10476;BME280;26166;48.264;11.436;2023-04-08T12:52:12;96548.25;;;10.59;54.45
10476;BME280;26166;48.264;11.436;2023-04-08T12:55:12;96543.81;;;10.59;54.88
10476;BME280;26166;48.264;11.436;2023-04-08T12:58:13;96545.63;;;10.59;54.74
10476;BME280;26166;48.264;11.436;2023-04-08T13:01:13;96544.63;;;10.60;54.94
10476;BME280;26166;48.264;11.436;2023-04-08T13:04:13;96541.84;;;10.61;55.01
10476;BME280;26166;48.264;11.436;2023-04-08T13:07:13;96546.13;;;10.63;55.05
10476;BME280;26166;48.264;11.436;2023-04-08T13:10:14;96539.88;;;10.64;54.74
10476;BME280;26166;48.264;11.436;2023-04-08T13:13:14;96547.44;;;10.67;54.88
10476;BME280;26166;48.264;11.436;2023-04-08T13:16:14;96547.13;;;10.70;55.05
10476;BME280;26166;48.264;11.436;2023-04-08T13:19:15;96555.69;;;10.72;54.69
10476;BME280;26166;48.264;11.436;2023-04-08T13:22:15;96557.97;;;10.75;54.53
10476;BME280;26166;48.264;11.436;2023-04-08T13:25:15;96561.41;;;10.75;55.02
10476;BME280;26166;48.264;11.436;2023-04-08T13:28:15;96557.16;;;10.74;54.39
10476;BME280;26166;48.264;11.436;2023-04-08T13:31:16;96554.50;;;10.74;54.55
10476;BME280;26166;48.264;11.436;2023-04-08T13:34:16;96559.63;;;10.76;54.95
10476;BME280;26166;48.264;11.436;2023-04-08T13:37:16;96556.53;;;10.80;54.69
10476;BME280;26166;48.264;11.436;2023-04-08T13:40:17;96552.72;;;10.83;54.62
10476;BME280;26166;48.264;11.436;2023-04-08T13:43:17;96556.84;;;10.85;54.49
10476;BME280;26166;48.264;11.436;2023-04-08T13:46:17;96547.66;;;10.90;54.56
10476;BME280;26166;48.264;11.436;2023-04-08T13:49:17;96551.25;;;10.89;53.96
10476;BME280;26166;48.264;11.436;2023-04-08T13:52:18;96549.94;;;10.84;54.34
10476;BME280;26166;48.264;11.436;2023-04-08T13:55:19;96559.16;;;10.80;54.16
10476;BME280;26166;48.264;11.436;2023-04-08T13:58:19;96557.00;;;10.76;54.58
10476;BME280;26166;48.264;11.436;2023-04-08T14:01:20;96561.41;;;10.75;54.09
10476;BME280;26166;48.264;11.436;2023-04-08T14:04:20;96566.66;;;10.75;54.10
10476;BME280;26166;48.264;11.436;2023-04-08T14:07:21;96562.41;;;10.74;54.51
10476;BME280;26166;48.264;11.436;2023-04-08T14:10:21;96569.63;;;10.72;54.14
10476;BME280;26166;48.264;11.436;2023-04-08T14:13:21;96572.25;;;10.72;54.20
10476;BME280;26166;48.264;11.436;2023-04-08T14:16:21;96569.63;;;10.72;54.43
10476;BME280;26166;48.264;11.436;2023-04-08T14:19:22;96567.00;;;10.72;54.39
10476;BME280;26166;48.264;11.436;2023-04-08T14:22:22;96573.91;;;10.73;54.51
10476;BME280;26166;48.264;11.436;2023-04-08T14:25:22;96574.22;;;10.70;54.23
10476;BME280;26166;48.264;11.436;2023-04-08T14:28:22;96580.13;;;10.72;54.22
10476;BME280;26166;48.264;11.436;2023-04-08T14:31:23;96574.06;;;10.72;54.32
10476;BME280;26166;48.264;11.436;2023-04-08T14:34:23;96585.41;;;10.72;54.27
10476;BME280;26166;48.264;11.436;2023-04-08T14:37:24;96584.41;;;10.73;54.48
10476;BME280;26166;48.264;11.436;2023-04-08T14:40:24;96578.97;;;10.75;54.53
10476;BME280;26166;48.264;11.436;2023-04-08T14:43:25;96581.44;;;10.68;54.55
10476;BME280;26166;48.264;11.436;2023-04-08T14:46:25;96581.75;;;10.65;54.89
10476;BME280;26166;48.264;11.436;2023-04-08T14:49:26;96580.28;;;10.63;54.63
10476;BME280;26166;48.264;11.436;2023-04-08T14:52:26;96583.56;;;10.65;54.59
10476;BME280;26166;48.264;11.436;2023-04-08T14:55:26;96587.50;;;10.69;54.39
10476;BME280;26166;48.264;11.436;2023-04-08T14:58:28;96594.09;;;10.73;54.58
10476;BME280;26166;48.264;11.436;2023-04-08T15:01:28;96591.31;;;10.74;54.16
10476;BME280;26166;48.264;11.436;2023-04-08T15:04:31;96589.34;;;10.76;53.99
10476;BME280;26166;48.264;11.436;2023-04-08T15:07:31;96596.06;;;10.79;54.16
10476;BME280;26166;48.264;11.436;2023-04-08T15:10:31;96599.53;;;10.79;54.20
10476;BME280;26166;48.264;11.436;2023-04-08T15:13:31;96605.59;;;10.80;54.06
10476;BME280;26166;48.264;11.436;2023-04-08T15:16:31;96602.00;;;10.81;54.15
10476;BME280;26166;48.264;11.436;2023-04-08T15:19:32;96604.28;;;10.84;53.77
10476;BME280;26166;48.264;11.436;2023-04-08T15:22:32;96609.41;;;10.85;53.76
10476;BME280;26166;48.264;11.436;2023-04-08T15:25:32;96604.16;;;10.85;54.16
10476;BME280;26166;48.264;11.436;2023-04-08T15:28:32;96602.50;;;10.84;54.19
10476;BME280;26166;48.264;11.436;2023-04-08T15:31:33;96607.59;;;10.86;54.52
10476;BME280;26166;48.264;11.436;2023-04-08T15:34:34;96610.75;;;10.90;54.27
10476;BME280;26166;48.264;11.436;2023-04-08T15:37:34;96612.38;;;10.91;54.25
10476;BME280;26166;48.264;11.436;2023-04-08T15:40:34;96609.72;;;10.82;54.77
10476;BME280;26166;48.264;11.436;2023-04-08T15:43:34;96612.63;;;10.71;54.70
10476;BME280;26166;48.264;11.436;2023-04-08T15:46:35;96605.03;;;10.60;55.35
10476;BME280;26166;48.264;11.436;2023-04-08T15:49:38;96609.78;;;10.56;55.38
10476;BME280;26166;48.264;11.436;2023-04-08T15:52:46;96610.59;;;10.57;55.28
10476;BME280;26166;48.264;11.436;2023-04-08T15:59:09;96620.78;;;10.52;55.63
10476;BME280;26166;48.264;11.436;2023-04-08T16:02:12;96617.78;;;10.47;55.91
10476;BME280;26166;48.264;11.436;2023-04-08T16:05:15;96620.41;;;10.47;55.94
10476;BME280;26166;48.264;11.436;2023-04-08T16:08:23;96621.25;;;10.47;55.91
10476;BME280;26166;48.264;11.436;2023-04-08T16:11:24;96631.56;;;10.49;55.54
10476;BME280;26166;48.264;11.436;2023-04-08T16:14:25;96630.63;;;10.50;55.93